Terminal Aerodrome Forecast
Issued by NWS Wilmington, OH

Current Version | Previous Version | Text Only | Print | Product List | Glossary Off
Versions: 1 2 3 4 5 6 7 8 9 10 11 12 13 14 15 16 17 18 19 20 21 22 23 24 25 26 27 28

062
FTUS41 KILN 232106 AAA
TAFCVG
TAF AMD
KCVG 232106Z 2321/2424 20010KT P6SM BKN040 OVC250
     FM240300 16006KT P6SM BKN050
     FM241100 19010KT P6SM BKN080
     FM241500 19014G24KT P6SM BKN035=

USA.gov is the U.S. government's official web portal to all federal, state and local government web resources and services.